sensor_id;sensor_type;location;lat;lon;timestamp;P1;durP1;ratioP1;P2;durP2;ratioP2
23310;SDS011;11828;51.508;18.118;2022-09-09T00:00:44;17.30;;;9.80;;
23310;SDS011;11828;51.508;18.118;2022-09-09T00:03:31;21.65;;;12.50;;
23310;SDS011;11828;51.508;18.118;2022-09-09T00:06:14;20.60;;;10.02;;
23310;SDS011;11828;51.508;18.118;2022-09-09T00:09:13;28.10;;;10.40;;
23310;SDS011;11828;51.508;18.118;2022-09-09T00:11:48;19.80;;;9.95;;
23310;SDS011;11828;51.508;18.118;2022-09-09T00:16:56;18.33;;;10.02;;
23310;SDS011;11828;51.508;18.118;2022-09-09T00:19:38;22.25;;;10.25;;
23310;SDS011;11828;51.508;18.118;2022-09-09T00:22:17;15.70;;;8.50;;
23310;SDS011;11828;51.508;18.118;2022-09-09T00:24:51;14.52;;;9.07;;
23310;SDS011;11828;51.508;18.118;2022-09-09T00:30:12;17.88;;;9.02;;
23310;SDS011;11828;51.508;18.118;2022-09-09T00:32:51;19.48;;;8.45;;
23310;SDS011;11828;51.508;18.118;2022-09-09T00:35:32;16.20;;;8.30;;
23310;SDS011;11828;51.508;18.118;2022-09-09T00:38:13;15.43;;;7.30;;
23310;SDS011;11828;51.508;18.118;2022-09-09T00:40:55;18.65;;;7.47;;
23310;SDS011;11828;51.508;18.118;2022-09-09T00:43:50;18.42;;;8.00;;
23310;SDS011;11828;51.508;18.118;2022-09-09T00:49:12;17.65;;;8.27;;
23310;SDS011;11828;51.508;18.118;2022-09-09T00:57:07;17.45;;;8.77;;
23310;SDS011;11828;51.508;18.118;2022-09-09T01:09:05;16.05;;;8.77;;
23310;SDS011;11828;51.508;18.118;2022-09-09T01:14:40;18.73;;;8.90;;
23310;SDS011;11828;51.508;18.118;2022-09-09T01:27:51;11.32;;;6.93;;
23310;SDS011;11828;51.508;18.118;2022-09-09T01:30:22;14.15;;;7.28;;
23310;SDS011;11828;51.508;18.118;2022-09-09T01:32:50;12.88;;;6.72;;
23310;SDS011;11828;51.508;18.118;2022-09-09T01:38:02;17.52;;;6.50;;
23310;SDS011;11828;51.508;18.118;2022-09-09T01:40:28;14.65;;;6.40;;
23310;SDS011;11828;51.508;18.118;2022-09-09T01:42:54;15.68;;;6.22;;
23310;SDS011;11828;51.508;18.118;2022-09-09T01:45:20;16.10;;;6.38;;
23310;SDS011;11828;51.508;18.118;2022-09-09T01:47:47;16.90;;;6.30;;
23310;SDS011;11828;51.508;18.118;2022-09-09T01:50:14;18.33;;;6.03;;
23310;SDS011;11828;51.508;18.118;2022-09-09T01:52:42;11.80;;;5.60;;
23310;SDS011;11828;51.508;18.118;2022-09-09T01:55:13;11.40;;;5.60;;
23310;SDS011;11828;51.508;18.118;2022-09-09T02:00:45;12.13;;;5.55;;
23310;SDS011;11828;51.508;18.118;2022-09-09T02:04:02;15.30;;;5.80;;
23310;SDS011;11828;51.508;18.118;2022-09-09T02:06:36;11.68;;;5.88;;
23310;SDS011;11828;51.508;18.118;2022-09-09T02:09:06;16.25;;;5.78;;
23310;SDS011;11828;51.508;18.118;2022-09-09T02:11:36;15.65;;;5.93;;
23310;SDS011;11828;51.508;18.118;2022-09-09T02:14:05;12.32;;;5.25;;
23310;SDS011;11828;51.508;18.118;2022-09-09T02:19:16;14.35;;;5.63;;
23310;SDS011;11828;51.508;18.118;2022-09-09T02:21:52;13.50;;;5.85;;
23310;SDS011;11828;51.508;18.118;2022-09-09T02:24:22;13.38;;;5.38;;
23310;SDS011;11828;51.508;18.118;2022-09-09T02:26:49;15.43;;;5.63;;
23310;SDS011;11828;51.508;18.118;2022-09-09T02:29:21;14.13;;;5.32;;
23310;SDS011;11828;51.508;18.118;2022-09-09T02:31:51;12.32;;;5.35;;
23310;SDS011;11828;51.508;18.118;2022-09-09T02:34:21;12.15;;;5.47;;
23310;SDS011;11828;51.508;18.118;2022-09-09T02:36:49;16.38;;;5.90;;
23310;SDS011;11828;51.508;18.118;2022-09-09T02:39:18;10.20;;;5.07;;
23310;SDS011;11828;51.508;18.118;2022-09-09T02:41:45;10.88;;;5.07;;
23310;SDS011;11828;51.508;18.118;2022-09-09T02:44:12;11.38;;;4.90;;
23310;SDS011;11828;51.508;18.118;2022-09-09T02:58:14;11.50;;;4.88;;
23310;SDS011;11828;51.508;18.118;2022-09-09T03:00:43;10.20;;;4.85;;
23310;SDS011;11828;51.508;18.118;2022-09-09T03:03:13;15.75;;;5.43;;
23310;SDS011;11828;51.508;18.118;2022-09-09T03:05:45;17.25;;;5.43;;
23310;SDS011;11828;51.508;18.118;2022-09-09T03:08:11;15.40;;;5.53;;
23310;SDS011;11828;51.508;18.118;2022-09-09T03:10:38;15.15;;;5.30;;
23310;SDS011;11828;51.508;18.118;2022-09-09T03:13:04;14.70;;;6.20;;
23310;SDS011;11828;51.508;18.118;2022-09-09T03:15:32;15.25;;;5.10;;
23310;SDS011;11828;51.508;18.118;2022-09-09T03:17:58;11.65;;;5.13;;
23310;SDS011;11828;51.508;18.118;2022-09-09T03:20:25;19.13;;;5.95;;
23310;SDS011;11828;51.508;18.118;2022-09-09T03:22:54;12.55;;;5.30;;
23310;SDS011;11828;51.508;18.118;2022-09-09T03:25:21;15.32;;;5.72;;
23310;SDS011;11828;51.508;18.118;2022-09-09T03:27:49;14.77;;;5.47;;
23310;SDS011;11828;51.508;18.118;2022-09-09T03:30:20;19.92;;;5.95;;
23310;SDS011;11828;51.508;18.118;2022-09-09T03:32:51;10.50;;;5.13;;
23310;SDS011;11828;51.508;18.118;2022-09-09T03:35:17;12.32;;;5.18;;
23310;SDS011;11828;51.508;18.118;2022-09-09T03:37:44;14.13;;;5.55;;
23310;SDS011;11828;51.508;18.118;2022-09-09T03:40:12;13.95;;;5.43;;
23310;SDS011;11828;51.508;18.118;2022-09-09T03:42:39;11.65;;;5.30;;
23310;SDS011;11828;51.508;18.118;2022-09-09T03:45:06;14.32;;;5.53;;
23310;SDS011;11828;51.508;18.118;2022-09-09T03:47:34;11.48;;;5.05;;
23310;SDS011;11828;51.508;18.118;2022-09-09T03:50:01;13.02;;;5.53;;
23310;SDS011;11828;51.508;18.118;2022-09-09T04:03:25;12.48;;;5.63;;
23310;SDS011;11828;51.508;18.118;2022-09-09T04:05:52;11.70;;;5.70;;
23310;SDS011;11828;51.508;18.118;2022-09-09T04:08:19;10.88;;;6.13;;
23310;SDS011;11828;51.508;18.118;2022-09-09T04:10:47;21.10;;;6.30;;
23310;SDS011;11828;51.508;18.118;2022-09-09T04:13:15;25.80;;;6.55;;
23310;SDS011;11828;51.508;18.118;2022-09-09T04:15:52;11.18;;;4.72;;
23310;SDS011;11828;51.508;18.118;2022-09-09T04:18:22;15.85;;;5.43;;
23310;SDS011;11828;51.508;18.118;2022-09-09T04:20:49;10.85;;;4.75;;
23310;SDS011;11828;51.508;18.118;2022-09-09T04:23:17;10.45;;;4.80;;
23310;SDS011;11828;51.508;18.118;2022-09-09T04:25:46;9.80;;;4.38;;
23310;SDS011;11828;51.508;18.118;2022-09-09T04:28:14;8.40;;;5.03;;
23310;SDS011;11828;51.508;18.118;2022-09-09T04:30:43;10.82;;;4.78;;
23310;SDS011;11828;51.508;18.118;2022-09-09T04:33:10;10.98;;;4.93;;
23310;SDS011;11828;51.508;18.118;2022-09-09T04:35:38;11.18;;;5.22;;
23310;SDS011;11828;51.508;18.118;2022-09-09T04:38:05;11.90;;;4.95;;
23310;SDS011;11828;51.508;18.118;2022-09-09T04:40:33;10.88;;;5.68;;
23310;SDS011;11828;51.508;18.118;2022-09-09T04:43:00;16.40;;;6.00;;
23310;SDS011;11828;51.508;18.118;2022-09-09T04:45:31;14.80;;;6.03;;
23310;SDS011;11828;51.508;18.118;2022-09-09T04:47:58;9.90;;;5.60;;
23310;SDS011;11828;51.508;18.118;2022-09-09T04:50:24;12.50;;;5.43;;
23310;SDS011;11828;51.508;18.118;2022-09-09T04:52:50;14.70;;;5.63;;
23310;SDS011;11828;51.508;18.118;2022-09-09T04:55:16;11.65;;;5.72;;
23310;SDS011;11828;51.508;18.118;2022-09-09T04:57:42;11.30;;;5.30;;
23310;SDS011;11828;51.508;18.118;2022-09-09T05:00:09;11.48;;;5.82;;
23310;SDS011;11828;51.508;18.118;2022-09-09T05:02:39;8.88;;;5.65;;
23310;SDS011;11828;51.508;18.118;2022-09-09T05:05:07;12.13;;;6.10;;
23310;SDS011;11828;51.508;18.118;2022-09-09T05:07:33;18.92;;;6.38;;
23310;SDS011;11828;51.508;18.118;2022-09-09T05:09:59;12.27;;;5.88;;
23310;SDS011;11828;51.508;18.118;2022-09-09T05:12:25;12.80;;;6.03;;
23310;SDS011;11828;51.508;18.118;2022-09-09T05:14:52;11.48;;;6.10;;
23310;SDS011;11828;51.508;18.118;2022-09-09T05:17:18;14.68;;;6.13;;
23310;SDS011;11828;51.508;18.118;2022-09-09T05:19:44;10.73;;;6.05;;
23310;SDS011;11828;51.508;18.118;2022-09-09T05:22:10;10.55;;;5.53;;
23310;SDS011;11828;51.508;18.118;2022-09-09T05:24:37;19.38;;;6.80;;
23310;SDS011;11828;51.508;18.118;2022-09-09T05:27:04;12.13;;;6.18;;
23310;SDS011;11828;51.508;18.118;2022-09-09T05:29:31;18.98;;;6.35;;
23310;SDS011;11828;51.508;18.118;2022-09-09T05:31:59;11.88;;;6.05;;
23310;SDS011;11828;51.508;18.118;2022-09-09T05:34:25;11.25;;;6.18;;
23310;SDS011;11828;51.508;18.118;2022-09-09T05:36:51;10.82;;;5.50;;
23310;SDS011;11828;51.508;18.118;2022-09-09T05:39:18;15.65;;;5.90;;
23310;SDS011;11828;51.508;18.118;2022-09-09T05:41:43;13.52;;;5.95;;
23310;SDS011;11828;51.508;18.118;2022-09-09T05:44:09;10.25;;;5.53;;
23310;SDS011;11828;51.508;18.118;2022-09-09T05:46:35;12.30;;;5.85;;
23310;SDS011;11828;51.508;18.118;2022-09-09T05:49:01;12.80;;;5.22;;
23310;SDS011;11828;51.508;18.118;2022-09-09T05:51:28;14.13;;;5.15;;
23310;SDS011;11828;51.508;18.118;2022-09-09T05:53:57;10.93;;;4.57;;
23310;SDS011;11828;51.508;18.118;2022-09-09T05:56:25;14.20;;;5.25;;
23310;SDS011;11828;51.508;18.118;2022-09-09T05:58:53;15.15;;;5.68;;
23310;SDS011;11828;51.508;18.118;2022-09-09T06:01:21;9.27;;;4.93;;
23310;SDS011;11828;51.508;18.118;2022-09-09T06:03:49;9.57;;;4.55;;
23310;SDS011;11828;51.508;18.118;2022-09-09T06:06:18;10.68;;;4.78;;
23310;SDS011;11828;51.508;18.118;2022-09-09T06:08:47;9.90;;;4.65;;
23310;SDS011;11828;51.508;18.118;2022-09-09T06:11:17;11.82;;;5.10;;
23310;SDS011;11828;51.508;18.118;2022-09-09T06:13:46;13.40;;;5.47;;
23310;SDS011;11828;51.508;18.118;2022-09-09T06:16:14;18.98;;;5.28;;
23310;SDS011;11828;51.508;18.118;2022-09-09T06:18:42;13.98;;;5.72;;
23310;SDS011;11828;51.508;18.118;2022-09-09T06:21:15;12.25;;;4.65;;
23310;SDS011;11828;51.508;18.118;2022-09-09T06:23:43;16.08;;;5.47;;
23310;SDS011;11828;51.508;18.118;2022-09-09T06:26:11;13.45;;;4.65;;
23310;SDS011;11828;51.508;18.118;2022-09-09T06:28:51;11.95;;;4.65;;
23310;SDS011;11828;51.508;18.118;2022-09-09T06:31:19;12.98;;;4.97;;
23310;SDS011;11828;51.508;18.118;2022-09-09T06:33:49;13.68;;;5.05;;
23310;SDS011;11828;51.508;18.118;2022-09-09T06:36:21;11.20;;;4.53;;
23310;SDS011;11828;51.508;18.118;2022-09-09T06:38:50;11.60;;;4.78;;
23310;SDS011;11828;51.508;18.118;2022-09-09T06:41:16;12.07;;;5.10;;
23310;SDS011;11828;51.508;18.118;2022-09-09T06:43:45;12.85;;;4.68;;
23310;SDS011;11828;51.508;18.118;2022-09-09T06:46:13;9.40;;;4.32;;
23310;SDS011;11828;51.508;18.118;2022-09-09T06:48:42;13.40;;;4.65;;
23310;SDS011;11828;51.508;18.118;2022-09-09T06:51:11;11.57;;;4.95;;
23310;SDS011;11828;51.508;18.118;2022-09-09T06:53:43;8.18;;;3.38;;
23310;SDS011;11828;51.508;18.118;2022-09-09T06:56:28;12.48;;;4.30;;
23310;SDS011;11828;51.508;18.118;2022-09-09T06:58:57;22.13;;;5.38;;
23310;SDS011;11828;51.508;18.118;2022-09-09T07:01:30;7.30;;;3.17;;
23310;SDS011;11828;51.508;18.118;2022-09-09T07:04:01;11.35;;;4.00;;
23310;SDS011;11828;51.508;18.118;2022-09-09T07:06:30;5.75;;;3.25;;
23310;SDS011;11828;51.508;18.118;2022-09-09T07:09:00;6.75;;;3.08;;
23310;SDS011;11828;51.508;18.118;2022-09-09T07:11:32;3.85;;;2.63;;
23310;SDS011;11828;51.508;18.118;2022-09-09T07:14:02;4.82;;;2.90;;
23310;SDS011;11828;51.508;18.118;2022-09-09T07:16:29;3.95;;;2.33;;
23310;SDS011;11828;51.508;18.118;2022-09-09T07:18:57;4.40;;;2.53;;
23310;SDS011;11828;51.508;18.118;2022-09-09T07:21:23;4.00;;;2.45;;
23310;SDS011;11828;51.508;18.118;2022-09-09T07:23:51;2.95;;;1.92;;
23310;SDS011;11828;51.508;18.118;2022-09-09T07:26:19;3.88;;;2.63;;
23310;SDS011;11828;51.508;18.118;2022-09-09T07:28:48;3.38;;;2.05;;
23310;SDS011;11828;51.508;18.118;2022-09-09T07:31:18;2.80;;;2.08;;
23310;SDS011;11828;51.508;18.118;2022-09-09T07:33:56;2.20;;;1.90;;
23310;SDS011;11828;51.508;18.118;2022-09-09T07:36:24;2.40;;;1.80;;
23310;SDS011;11828;51.508;18.118;2022-09-09T07:38:53;3.15;;;2.03;;
23310;SDS011;11828;51.508;18.118;2022-09-09T07:41:39;1.73;;;1.63;;
23310;SDS011;11828;51.508;18.118;2022-09-09T07:44:16;2.17;;;1.75;;
23310;SDS011;11828;51.508;18.118;2022-09-09T07:46:46;2.67;;;2.10;;
23310;SDS011;11828;51.508;18.118;2022-09-09T07:49:13;1.52;;;1.42;;
23310;SDS011;11828;51.508;18.118;2022-09-09T07:51:41;2.65;;;1.75;;
23310;SDS011;11828;51.508;18.118;2022-09-09T07:54:11;2.20;;;1.60;;
23310;SDS011;11828;51.508;18.118;2022-09-09T07:56:40;3.38;;;2.05;;
23310;SDS011;11828;51.508;18.118;2022-09-09T07:59:07;4.40;;;1.80;;
23310;SDS011;11828;51.508;18.118;2022-09-09T08:01:40;3.05;;;1.70;;
23310;SDS011;11828;51.508;18.118;2022-09-09T08:04:14;1.58;;;1.48;;
23310;SDS011;11828;51.508;18.118;2022-09-09T08:06:44;1.40;;;1.30;;
23310;SDS011;11828;51.508;18.118;2022-09-09T08:09:18;1.40;;;1.25;;
23310;SDS011;11828;51.508;18.118;2022-09-09T08:11:45;1.10;;;1.00;;
23310;SDS011;11828;51.508;18.118;2022-09-09T08:14:12;1.42;;;1.20;;
23310;SDS011;11828;51.508;18.118;2022-09-09T08:16:40;1.42;;;1.33;;
23310;SDS011;11828;51.508;18.118;2022-09-09T08:19:11;1.75;;;1.30;;
23310;SDS011;11828;51.508;18.118;2022-09-09T08:21:40;1.77;;;1.50;;
23310;SDS011;11828;51.508;18.118;2022-09-09T08:24:08;2.17;;;0.95;;
23310;SDS011;11828;51.508;18.118;2022-09-09T08:26:37;1.17;;;1.00;;
23310;SDS011;11828;51.508;18.118;2022-09-09T08:29:07;0.95;;;0.90;;
23310;SDS011;11828;51.508;18.118;2022-09-09T08:31:37;1.63;;;1.17;;
23310;SDS011;11828;51.508;18.118;2022-09-09T08:34:14;1.20;;;1.10;;
23310;SDS011;11828;51.508;18.118;2022-09-09T08:36:42;1.20;;;1.10;;
23310;SDS011;11828;51.508;18.118;2022-09-09T08:39:11;0.85;;;0.80;;
23310;SDS011;11828;51.508;18.118;2022-09-09T08:50:27;1.20;;;1.10;;
23310;SDS011;11828;51.508;18.118;2022-09-09T08:55:51;1.30;;;1.15;;
23310;SDS011;11828;51.508;18.118;2022-09-09T08:58:27;1.40;;;1.30;;
23310;SDS011;11828;51.508;18.118;2022-09-09T09:07:16;1.08;;;1.00;;
23310;SDS011;11828;51.508;18.118;2022-09-09T09:12:27;1.77;;;1.40;;
23310;SDS011;11828;51.508;18.118;2022-09-09T09:14:58;5.20;;;3.35;;
23310;SDS011;11828;51.508;18.118;2022-09-09T09:17:25;48.15;;;25.80;;
23310;SDS011;11828;51.508;18.118;2022-09-09T09:19:56;18.45;;;10.52;;
23310;SDS011;11828;51.508;18.118;2022-09-09T09:25:22;3.00;;;1.80;;
23310;SDS011;11828;51.508;18.118;2022-09-09T09:28:02;2.58;;;1.70;;
23310;SDS011;11828;51.508;18.118;2022-09-09T09:30:48;5.85;;;4.53;;
23310;SDS011;11828;51.508;18.118;2022-09-09T09:34:03;6.53;;;3.33;;
23310;SDS011;11828;51.508;18.118;2022-09-09T09:36:13;2.08;;;1.85;;
23310;SDS011;11828;51.508;18.118;2022-09-09T09:38:57;1.10;;;1.00;;
23310;SDS011;11828;51.508;18.118;2022-09-09T09:41:30;2.78;;;2.35;;
23310;SDS011;11828;51.508;18.118;2022-09-09T09:44:00;3.03;;;2.30;;
23310;SDS011;11828;51.508;18.118;2022-09-09T09:46:27;7.13;;;5.03;;
23310;SDS011;11828;51.508;18.118;2022-09-09T09:48:57;5.80;;;3.10;;
23310;SDS011;11828;51.508;18.118;2022-09-09T09:51:26;6.95;;;4.55;;
23310;SDS011;11828;51.508;18.118;2022-09-09T09:54:03;2.92;;;2.08;;
23310;SDS011;11828;51.508;18.118;2022-09-09T09:56:38;6.53;;;2.38;;
23310;SDS011;11828;51.508;18.118;2022-09-09T09:59:18;2.83;;;1.63;;
23310;SDS011;11828;51.508;18.118;2022-09-09T10:04:38;2.85;;;1.65;;
23310;SDS011;11828;51.508;18.118;2022-09-09T10:07:18;3.10;;;1.60;;
23310;SDS011;11828;51.508;18.118;2022-09-09T10:09:48;3.58;;;2.00;;
23310;SDS011;11828;51.508;18.118;2022-09-09T10:31:40;3.30;;;1.83;;
23310;SDS011;11828;51.508;18.118;2022-09-09T10:34:59;3.65;;;1.80;;
23310;SDS011;11828;51.508;18.118;2022-09-09T10:40:34;4.78;;;1.83;;
23310;SDS011;11828;51.508;18.118;2022-09-09T10:46:52;3.15;;;1.15;;
23310;SDS011;11828;51.508;18.118;2022-09-09T10:52:28;6.80;;;2.00;;
23310;SDS011;11828;51.508;18.118;2022-09-09T10:57:48;4.00;;;1.40;;
23310;SDS011;11828;51.508;18.118;2022-09-09T11:02:57;6.10;;;1.55;;
23310;SDS011;11828;51.508;18.118;2022-09-09T11:05:30;4.78;;;1.60;;
23310;SDS011;11828;51.508;18.118;2022-09-09T11:08:12;6.63;;;2.92;;
23310;SDS011;11828;51.508;18.118;2022-09-09T11:16:28;31.38;;;14.25;;
23310;SDS011;11828;51.508;18.118;2022-09-09T11:19:16;26.75;;;11.95;;
23310;SDS011;11828;51.508;18.118;2022-09-09T11:21:53;14.52;;;6.03;;
23310;SDS011;11828;51.508;18.118;2022-09-09T11:24:24;11.70;;;5.78;;
23310;SDS011;11828;51.508;18.118;2022-09-09T11:26:57;9.65;;;4.57;;
23310;SDS011;11828;51.508;18.118;2022-09-09T11:35:19;9.32;;;2.80;;
23310;SDS011;11828;51.508;18.118;2022-09-09T11:38:28;7.13;;;3.85;;
23310;SDS011;11828;51.508;18.118;2022-09-09T11:41:12;4.22;;;2.25;;
23310;SDS011;11828;51.508;18.118;2022-09-09T11:46:11;5.10;;;1.80;;
23310;SDS011;11828;51.508;18.118;2022-09-09T11:48:42;5.03;;;1.65;;
23310;SDS011;11828;51.508;18.118;2022-09-09T11:56:30;6.80;;;2.13;;
23310;SDS011;11828;51.508;18.118;2022-09-09T12:01:37;6.05;;;1.40;;
23310;SDS011;11828;51.508;18.118;2022-09-09T12:04:21;5.38;;;1.55;;
23310;SDS011;11828;51.508;18.118;2022-09-09T12:06:59;4.13;;;1.45;;
23310;SDS011;11828;51.508;18.118;2022-09-09T12:12:30;4.95;;;1.60;;
23310;SDS011;11828;51.508;18.118;2022-09-09T12:17:43;11.38;;;2.80;;
23310;SDS011;11828;51.508;18.118;2022-09-09T12:20:37;7.40;;;2.47;;
23310;SDS011;11828;51.508;18.118;2022-09-09T12:29:18;3.53;;;1.40;;
23310;SDS011;11828;51.508;18.118;2022-09-09T12:34:41;6.45;;;2.00;;
23310;SDS011;11828;51.508;18.118;2022-09-09T12:40:04;5.25;;;1.70;;
23310;SDS011;11828;51.508;18.118;2022-09-09T12:42:46;5.35;;;1.90;;
23310;SDS011;11828;51.508;18.118;2022-09-09T12:45:19;3.28;;;1.50;;
23310;SDS011;11828;51.508;18.118;2022-09-09T12:47:51;6.15;;;1.98;;
23310;SDS011;11828;51.508;18.118;2022-09-09T12:50:22;6.10;;;1.83;;
23310;SDS011;11828;51.508;18.118;2022-09-09T12:52:56;4.47;;;1.73;;
23310;SDS011;11828;51.508;18.118;2022-09-09T12:55:52;25.52;;;4.50;;
23310;SDS011;11828;51.508;18.118;2022-09-09T12:58:23;6.93;;;1.77;;
23310;SDS011;11828;51.508;18.118;2022-09-09T13:00:53;6.88;;;2.00;;
23310;SDS011;11828;51.508;18.118;2022-09-09T13:03:21;12.32;;;2.67;;
23310;SDS011;11828;51.508;18.118;2022-09-09T13:05:50;13.32;;;2.72;;
23310;SDS011;11828;51.508;18.118;2022-09-09T13:08:18;11.18;;;2.42;;
23310;SDS011;11828;51.508;18.118;2022-09-09T13:10:55;12.23;;;2.67;;
23310;SDS011;11828;51.508;18.118;2022-09-09T13:13:30;7.40;;;1.95;;
23310;SDS011;11828;51.508;18.118;2022-09-09T13:16:03;10.07;;;2.17;;
23310;SDS011;11828;51.508;18.118;2022-09-09T13:18:34;9.00;;;2.08;;
23310;SDS011;11828;51.508;18.118;2022-09-09T13:21:04;3.67;;;1.30;;
23310;SDS011;11828;51.508;18.118;2022-09-09T13:23:31;9.77;;;2.42;;
23310;SDS011;11828;51.508;18.118;2022-09-09T13:26:01;9.40;;;2.20;;
23310;SDS011;11828;51.508;18.118;2022-09-09T13:28:49;11.35;;;2.45;;
23310;SDS011;11828;51.508;18.118;2022-09-09T13:31:28;6.03;;;1.70;;
23310;SDS011;11828;51.508;18.118;2022-09-09T13:33:58;6.10;;;1.60;;
23310;SDS011;11828;51.508;18.118;2022-09-09T13:36:28;3.03;;;1.10;;
23310;SDS011;11828;51.508;18.118;2022-09-09T13:38:57;6.43;;;1.70;;
23310;SDS011;11828;51.508;18.118;2022-09-09T13:41:29;4.68;;;1.45;;
23310;SDS011;11828;51.508;18.118;2022-09-09T13:44:22;8.90;;;2.05;;
23310;SDS011;11828;51.508;18.118;2022-09-09T13:47:05;8.68;;;2.20;;
23310;SDS011;11828;51.508;18.118;2022-09-09T13:49:37;3.20;;;1.40;;
23310;SDS011;11828;51.508;18.118;2022-09-09T13:52:05;5.32;;;1.63;;
23310;SDS011;11828;51.508;18.118;2022-09-09T13:54:41;4.38;;;1.40;;
23310;SDS011;11828;51.508;18.118;2022-09-09T13:57:14;3.28;;;1.20;;
23310;SDS011;11828;51.508;18.118;2022-09-09T13:59:46;3.58;;;1.20;;
23310;SDS011;11828;51.508;18.118;2022-09-09T14:02:13;6.32;;;2.00;;
23310;SDS011;11828;51.508;18.118;2022-09-09T14:04:41;8.55;;;2.67;;
23310;SDS011;11828;51.508;18.118;2022-09-09T14:07:11;16.90;;;3.88;;
23310;SDS011;11828;51.508;18.118;2022-09-09T14:09:42;4.97;;;1.92;;
23310;SDS011;11828;51.508;18.118;2022-09-09T14:12:10;11.57;;;2.50;;
23310;SDS011;11828;51.508;18.118;2022-09-09T14:14:37;13.35;;;2.90;;
23310;SDS011;11828;51.508;18.118;2022-09-09T14:17:04;10.05;;;2.10;;
23310;SDS011;11828;51.508;18.118;2022-09-09T14:19:30;11.68;;;2.72;;
23310;SDS011;11828;51.508;18.118;2022-09-09T14:21:56;10.77;;;2.42;;
23310;SDS011;11828;51.508;18.118;2022-09-09T14:24:23;13.00;;;2.70;;
23310;SDS011;11828;51.508;18.118;2022-09-09T14:26:50;10.27;;;2.42;;
23310;SDS011;11828;51.508;18.118;2022-09-09T14:29:16;8.77;;;2.08;;
23310;SDS011;11828;51.508;18.118;2022-09-09T14:31:42;9.93;;;2.42;;
23310;SDS011;11828;51.508;18.118;2022-09-09T14:34:08;9.05;;;2.15;;
23310;SDS011;11828;51.508;18.118;2022-09-09T14:36:36;9.45;;;2.08;;
23310;SDS011;11828;51.508;18.118;2022-09-09T14:39:03;7.05;;;1.80;;
23310;SDS011;11828;51.508;18.118;2022-09-09T14:41:29;12.07;;;2.28;;
23310;SDS011;11828;51.508;18.118;2022-09-09T14:43:55;14.18;;;2.67;;
23310;SDS011;11828;51.508;18.118;2022-09-09T14:46:22;17.52;;;3.53;;
23310;SDS011;11828;51.508;18.118;2022-09-09T14:48:48;53.80;;;16.25;;
23310;SDS011;11828;51.508;18.118;2022-09-09T14:51:21;68.07;;;23.73;;
23310;SDS011;11828;51.508;18.118;2022-09-09T14:53:53;82.88;;;28.30;;
23310;SDS011;11828;51.508;18.118;2022-09-09T14:56:22;50.72;;;16.27;;
23310;SDS011;11828;51.508;18.118;2022-09-09T14:58:55;31.95;;;10.73;;
23310;SDS011;11828;51.508;18.118;2022-09-09T15:01:22;35.35;;;14.68;;
23310;SDS011;11828;51.508;18.118;2022-09-09T15:03:50;25.02;;;9.50;;
23310;SDS011;11828;51.508;18.118;2022-09-09T15:06:29;13.40;;;4.35;;
23310;SDS011;11828;51.508;18.118;2022-09-09T15:08:59;17.80;;;6.45;;
23310;SDS011;11828;51.508;18.118;2022-09-09T15:11:27;21.00;;;6.95;;
23310;SDS011;11828;51.508;18.118;2022-09-09T15:13:56;11.98;;;3.85;;
23310;SDS011;11828;51.508;18.118;2022-09-09T15:16:24;13.38;;;3.13;;
23310;SDS011;11828;51.508;18.118;2022-09-09T15:18:53;9.02;;;2.25;;
23310;SDS011;11828;51.508;18.118;2022-09-09T15:21:22;17.13;;;3.40;;
23310;SDS011;11828;51.508;18.118;2022-09-09T15:23:56;6.93;;;2.20;;
23310;SDS011;11828;51.508;18.118;2022-09-09T15:26:23;14.45;;;3.17;;
23310;SDS011;11828;51.508;18.118;2022-09-09T15:28:50;8.57;;;2.42;;
23310;SDS011;11828;51.508;18.118;2022-09-09T15:31:21;6.70;;;1.80;;
23310;SDS011;11828;51.508;18.118;2022-09-09T15:33:51;11.63;;;2.83;;
23310;SDS011;11828;51.508;18.118;2022-09-09T15:36:46;7.70;;;2.38;;
23310;SDS011;11828;51.508;18.118;2022-09-09T15:39:13;5.40;;;2.20;;
23310;SDS011;11828;51.508;18.118;2022-09-09T15:41:44;7.03;;;2.53;;
23310;SDS011;11828;51.508;18.118;2022-09-09T15:44:12;6.60;;;2.78;;
23310;SDS011;11828;51.508;18.118;2022-09-09T15:49:27;5.22;;;2.40;;
23310;SDS011;11828;51.508;18.118;2022-09-09T15:51:55;6.65;;;2.53;;
23310;SDS011;11828;51.508;18.118;2022-09-09T15:54:25;6.20;;;2.10;;
23310;SDS011;11828;51.508;18.118;2022-09-09T15:56:58;9.57;;;2.60;;
23310;SDS011;11828;51.508;18.118;2022-09-09T15:59:28;10.15;;;2.60;;
23310;SDS011;11828;51.508;18.118;2022-09-09T16:01:55;20.95;;;3.88;;
23310;SDS011;11828;51.508;18.118;2022-09-09T16:04:25;9.18;;;2.35;;
23310;SDS011;11828;51.508;18.118;2022-09-09T16:06:55;6.85;;;2.17;;
23310;SDS011;11828;51.508;18.118;2022-09-09T16:09:24;10.02;;;2.42;;
23310;SDS011;11828;51.508;18.118;2022-09-09T16:11:52;12.43;;;3.47;;
23310;SDS011;11828;51.508;18.118;2022-09-09T16:14:21;10.25;;;3.05;;
23310;SDS011;11828;51.508;18.118;2022-09-09T16:16:47;10.45;;;2.83;;
23310;SDS011;11828;51.508;18.118;2022-09-09T16:19:14;11.75;;;3.25;;
23310;SDS011;11828;51.508;18.118;2022-09-09T16:21:41;15.27;;;3.85;;
23310;SDS011;11828;51.508;18.118;2022-09-09T16:24:10;8.82;;;2.97;;
23310;SDS011;11828;51.508;18.118;2022-09-09T16:26:41;9.27;;;2.72;;
23310;SDS011;11828;51.508;18.118;2022-09-09T16:29:10;8.05;;;2.20;;
23310;SDS011;11828;51.508;18.118;2022-09-09T16:31:38;7.32;;;2.17;;
23310;SDS011;11828;51.508;18.118;2022-09-09T16:34:06;11.30;;;2.42;;
23310;SDS011;11828;51.508;18.118;2022-09-09T16:36:34;12.25;;;2.83;;
23310;SDS011;11828;51.508;18.118;2022-09-09T16:39:03;7.43;;;2.13;;
23310;SDS011;11828;51.508;18.118;2022-09-09T16:41:32;11.00;;;2.63;;
23310;SDS011;11828;51.508;18.118;2022-09-09T16:44:00;13.18;;;2.85;;
23310;SDS011;11828;51.508;18.118;2022-09-09T16:46:29;11.00;;;3.13;;
23310;SDS011;11828;51.508;18.118;2022-09-09T16:48:58;12.27;;;3.20;;
23310;SDS011;11828;51.508;18.118;2022-09-09T16:54:00;11.43;;;3.78;;
23310;SDS011;11828;51.508;18.118;2022-09-09T16:56:30;9.63;;;3.20;;
23310;SDS011;11828;51.508;18.118;2022-09-09T16:59:00;17.90;;;3.80;;
23310;SDS011;11828;51.508;18.118;2022-09-09T17:01:32;12.30;;;3.03;;
23310;SDS011;11828;51.508;18.118;2022-09-09T17:04:03;7.47;;;2.65;;
23310;SDS011;11828;51.508;18.118;2022-09-09T17:06:56;11.80;;;3.40;;
23310;SDS011;11828;51.508;18.118;2022-09-09T17:09:25;8.57;;;3.05;;
23310;SDS011;11828;51.508;18.118;2022-09-09T17:11:56;14.55;;;3.60;;
23310;SDS011;11828;51.508;18.118;2022-09-09T17:14:22;15.68;;;3.45;;
23310;SDS011;11828;51.508;18.118;2022-09-09T17:16:49;10.15;;;3.33;;
23310;SDS011;11828;51.508;18.118;2022-09-09T17:19:15;15.95;;;3.95;;
23310;SDS011;11828;51.508;18.118;2022-09-09T17:21:41;12.05;;;3.75;;
23310;SDS011;11828;51.508;18.118;2022-09-09T17:24:08;11.57;;;3.03;;
23310;SDS011;11828;51.508;18.118;2022-09-09T17:26:34;13.93;;;3.45;;
23310;SDS011;11828;51.508;18.118;2022-09-09T17:29:01;13.00;;;3.30;;
23310;SDS011;11828;51.508;18.118;2022-09-09T17:31:28;15.10;;;3.42;;
23310;SDS011;11828;51.508;18.118;2022-09-09T17:33:55;9.82;;;3.20;;
23310;SDS011;11828;51.508;18.118;2022-09-09T17:36:29;10.43;;;3.17;;
23310;SDS011;11828;51.508;18.118;2022-09-09T17:38:58;6.50;;;3.40;;
23310;SDS011;11828;51.508;18.118;2022-09-09T17:41:26;17.98;;;5.35;;